sensor_id;sensor_type;location;lat;lon;timestamp;P1;durP1;ratioP1;P2;durP2;ratioP2
39242;SDS011;29823;47.404;8.566;2024-02-04T00:00:02;21.75;;;10.77;;
39242;SDS011;29823;47.404;8.566;2024-02-04T00:02:32;19.70;;;10.50;;
39242;SDS011;29823;47.404;8.566;2024-02-04T00:05:01;18.67;;;9.68;;
39242;SDS011;29823;47.404;8.566;2024-02-04T00:07:29;15.43;;;9.70;;
39242;SDS011;29823;47.404;8.566;2024-02-04T00:09:57;17.88;;;9.43;;
39242;SDS011;29823;47.404;8.566;2024-02-04T00:12:24;18.80;;;9.77;;
39242;SDS011;29823;47.404;8.566;2024-02-04T00:14:53;17.52;;;9.18;;
39242;SDS011;29823;47.404;8.566;2024-02-04T00:17:21;15.68;;;8.73;;
39242;SDS011;29823;47.404;8.566;2024-02-04T00:19:49;12.95;;;7.75;;
39242;SDS011;29823;47.404;8.566;2024-02-04T00:22:18;18.02;;;7.68;;
39242;SDS011;29823;47.404;8.566;2024-02-04T00:24:46;13.25;;;7.60;;
39242;SDS011;29823;47.404;8.566;2024-02-04T00:27:14;13.40;;;7.93;;
39242;SDS011;29823;47.404;8.566;2024-02-04T00:29:42;10.80;;;6.88;;
39242;SDS011;29823;47.404;8.566;2024-02-04T00:32:09;12.98;;;7.55;;
39242;SDS011;29823;47.404;8.566;2024-02-04T00:34:37;14.00;;;7.10;;
39242;SDS011;29823;47.404;8.566;2024-02-04T00:37:05;11.77;;;7.13;;
39242;SDS011;29823;47.404;8.566;2024-02-04T00:39:34;9.38;;;5.88;;
39242;SDS011;29823;47.404;8.566;2024-02-04T00:42:02;12.85;;;6.70;;
39242;SDS011;29823;47.404;8.566;2024-02-04T00:44:29;9.25;;;6.05;;
39242;SDS011;29823;47.404;8.566;2024-02-04T00:46:57;11.65;;;6.15;;
39242;SDS011;29823;47.404;8.566;2024-02-04T00:49:25;8.55;;;5.07;;
39242;SDS011;29823;47.404;8.566;2024-02-04T00:51:53;11.23;;;5.32;;
39242;SDS011;29823;47.404;8.566;2024-02-04T00:54:21;8.32;;;5.25;;
39242;SDS011;29823;47.404;8.566;2024-02-04T00:56:50;8.70;;;5.50;;
39242;SDS011;29823;47.404;8.566;2024-02-04T00:59:17;8.77;;;5.50;;
39242;SDS011;29823;47.404;8.566;2024-02-04T01:01:45;9.70;;;5.80;;
39242;SDS011;29823;47.404;8.566;2024-02-04T01:04:13;8.35;;;4.90;;
39242;SDS011;29823;47.404;8.566;2024-02-04T01:06:41;7.72;;;4.90;;
39242;SDS011;29823;47.404;8.566;2024-02-04T01:09:25;7.35;;;4.70;;
39242;SDS011;29823;47.404;8.566;2024-02-04T01:11:55;8.95;;;5.15;;
39242;SDS011;29823;47.404;8.566;2024-02-04T01:14:23;9.00;;;5.47;;
39242;SDS011;29823;47.404;8.566;2024-02-04T01:16:50;6.57;;;4.32;;
39242;SDS011;29823;47.404;8.566;2024-02-04T01:19:18;7.72;;;4.68;;
39242;SDS011;29823;47.404;8.566;2024-02-04T01:21:46;7.70;;;4.32;;
39242;SDS011;29823;47.404;8.566;2024-02-04T01:24:14;7.18;;;4.25;;
39242;SDS011;29823;47.404;8.566;2024-02-04T01:26:42;5.95;;;3.97;;
39242;SDS011;29823;47.404;8.566;2024-02-04T01:29:11;6.60;;;3.83;;
39242;SDS011;29823;47.404;8.566;2024-02-04T01:31:39;6.07;;;3.15;;
39242;SDS011;29823;47.404;8.566;2024-02-04T01:34:07;5.95;;;3.83;;
39242;SDS011;29823;47.404;8.566;2024-02-04T01:36:35;7.03;;;4.03;;
39242;SDS011;29823;47.404;8.566;2024-02-04T01:39:03;5.47;;;3.17;;
39242;SDS011;29823;47.404;8.566;2024-02-04T01:41:31;5.68;;;3.75;;
39242;SDS011;29823;47.404;8.566;2024-02-04T01:43:59;4.43;;;2.97;;
39242;SDS011;29823;47.404;8.566;2024-02-04T01:46:29;6.93;;;3.42;;
39242;SDS011;29823;47.404;8.566;2024-02-04T01:48:57;6.00;;;3.95;;
39242;SDS011;29823;47.404;8.566;2024-02-04T01:51:25;5.53;;;3.67;;
39242;SDS011;29823;47.404;8.566;2024-02-04T01:53:53;7.15;;;3.22;;
39242;SDS011;29823;47.404;8.566;2024-02-04T01:56:20;5.85;;;3.90;;
39242;SDS011;29823;47.404;8.566;2024-02-04T01:58:49;7.85;;;3.45;;
39242;SDS011;29823;47.404;8.566;2024-02-04T02:01:16;5.47;;;3.28;;
39242;SDS011;29823;47.404;8.566;2024-02-04T02:03:46;6.38;;;3.78;;
39242;SDS011;29823;47.404;8.566;2024-02-04T02:06:16;6.70;;;3.78;;
39242;SDS011;29823;47.404;8.566;2024-02-04T02:08:44;8.05;;;4.18;;
39242;SDS011;29823;47.404;8.566;2024-02-04T02:11:17;4.88;;;3.42;;
39242;SDS011;29823;47.404;8.566;2024-02-04T02:13:45;6.78;;;4.30;;
39242;SDS011;29823;47.404;8.566;2024-02-04T02:16:15;5.15;;;3.72;;
39242;SDS011;29823;47.404;8.566;2024-02-04T02:18:48;6.68;;;3.70;;
39242;SDS011;29823;47.404;8.566;2024-02-04T02:21:19;8.95;;;5.40;;
39242;SDS011;29823;47.404;8.566;2024-02-04T02:23:53;9.05;;;5.57;;
39242;SDS011;29823;47.404;8.566;2024-02-04T02:26:28;14.85;;;7.05;;
39242;SDS011;29823;47.404;8.566;2024-02-04T02:28:56;8.57;;;5.53;;
39242;SDS011;29823;47.404;8.566;2024-02-04T02:31:24;9.50;;;5.78;;
39242;SDS011;29823;47.404;8.566;2024-02-04T02:34:05;13.75;;;7.03;;
39242;SDS011;29823;47.404;8.566;2024-02-04T02:36:36;12.73;;;7.75;;
39242;SDS011;29823;47.404;8.566;2024-02-04T02:39:08;16.67;;;9.40;;
39242;SDS011;29823;47.404;8.566;2024-02-04T02:41:39;15.52;;;8.68;;
39242;SDS011;29823;47.404;8.566;2024-02-04T02:44:08;18.10;;;8.75;;
39242;SDS011;29823;47.404;8.566;2024-02-04T02:46:36;13.13;;;7.55;;
39242;SDS011;29823;47.404;8.566;2024-02-04T02:49:04;14.93;;;7.18;;
39242;SDS011;29823;47.404;8.566;2024-02-04T02:51:32;14.88;;;7.18;;
39242;SDS011;29823;47.404;8.566;2024-02-04T02:54:00;11.82;;;6.82;;
39242;SDS011;29823;47.404;8.566;2024-02-04T02:56:28;12.18;;;6.82;;
39242;SDS011;29823;47.404;8.566;2024-02-04T02:58:57;11.40;;;6.97;;
39242;SDS011;29823;47.404;8.566;2024-02-04T03:01:24;10.35;;;6.45;;
39242;SDS011;29823;47.404;8.566;2024-02-04T03:03:52;9.45;;;5.22;;
39242;SDS011;29823;47.404;8.566;2024-02-04T03:06:20;10.80;;;5.95;;
39242;SDS011;29823;47.404;8.566;2024-02-04T03:08:48;10.07;;;5.60;;
39242;SDS011;29823;47.404;8.566;2024-02-04T03:11:16;9.65;;;5.68;;
39242;SDS011;29823;47.404;8.566;2024-02-04T03:13:44;9.57;;;6.20;;
39242;SDS011;29823;47.404;8.566;2024-02-04T03:16:13;9.77;;;5.90;;
39242;SDS011;29823;47.404;8.566;2024-02-04T03:18:41;11.05;;;6.18;;
39242;SDS011;29823;47.404;8.566;2024-02-04T03:21:12;8.77;;;5.28;;
39242;SDS011;29823;47.404;8.566;2024-02-04T03:23:41;8.98;;;4.82;;
39242;SDS011;29823;47.404;8.566;2024-02-04T03:26:09;6.40;;;4.00;;
39242;SDS011;29823;47.404;8.566;2024-02-04T03:28:37;8.50;;;4.05;;
39242;SDS011;29823;47.404;8.566;2024-02-04T03:31:05;6.55;;;3.72;;
39242;SDS011;29823;47.404;8.566;2024-02-04T03:33:34;7.10;;;3.47;;
39242;SDS011;29823;47.404;8.566;2024-02-04T03:36:01;5.95;;;3.25;;
39242;SDS011;29823;47.404;8.566;2024-02-04T03:38:29;5.85;;;3.15;;
39242;SDS011;29823;47.404;8.566;2024-02-04T03:40:57;5.35;;;3.08;;
39242;SDS011;29823;47.404;8.566;2024-02-04T03:43:25;5.25;;;3.20;;
39242;SDS011;29823;47.404;8.566;2024-02-04T03:45:53;4.93;;;2.90;;
39242;SDS011;29823;47.404;8.566;2024-02-04T03:48:20;5.13;;;3.40;;
39242;SDS011;29823;47.404;8.566;2024-02-04T03:50:50;5.07;;;3.10;;
39242;SDS011;29823;47.404;8.566;2024-02-04T03:53:17;4.55;;;3.08;;
39242;SDS011;29823;47.404;8.566;2024-02-04T03:55:47;5.28;;;3.03;;
39242;SDS011;29823;47.404;8.566;2024-02-04T03:58:15;13.77;;;7.25;;
39242;SDS011;29823;47.404;8.566;2024-02-04T04:00:43;4.63;;;3.38;;
39242;SDS011;29823;47.404;8.566;2024-02-04T04:03:11;5.03;;;2.42;;
39242;SDS011;29823;47.404;8.566;2024-02-04T04:05:42;4.82;;;2.53;;
39242;SDS011;29823;47.404;8.566;2024-02-04T04:08:11;3.65;;;2.67;;
39242;SDS011;29823;47.404;8.566;2024-02-04T04:10:39;4.25;;;3.10;;
39242;SDS011;29823;47.404;8.566;2024-02-04T04:13:06;6.05;;;3.38;;
39242;SDS011;29823;47.404;8.566;2024-02-04T04:15:34;8.02;;;4.53;;
39242;SDS011;29823;47.404;8.566;2024-02-04T04:18:03;9.80;;;5.50;;
39242;SDS011;29823;47.404;8.566;2024-02-04T04:20:31;6.25;;;4.32;;
39242;SDS011;29823;47.404;8.566;2024-02-04T04:22:59;8.55;;;5.10;;
39242;SDS011;29823;47.404;8.566;2024-02-04T04:25:28;10.23;;;6.53;;
39242;SDS011;29823;47.404;8.566;2024-02-04T04:27:56;11.85;;;6.18;;
39242;SDS011;29823;47.404;8.566;2024-02-04T04:30:24;16.90;;;9.20;;
39242;SDS011;29823;47.404;8.566;2024-02-04T04:32:52;13.82;;;8.13;;
39242;SDS011;29823;47.404;8.566;2024-02-04T04:35:20;16.40;;;7.72;;
39242;SDS011;29823;47.404;8.566;2024-02-04T04:37:48;12.43;;;6.93;;
39242;SDS011;29823;47.404;8.566;2024-02-04T04:40:15;14.15;;;8.75;;
39242;SDS011;29823;47.404;8.566;2024-02-04T04:42:44;14.73;;;8.73;;
39242;SDS011;29823;47.404;8.566;2024-02-04T04:45:12;17.63;;;10.25;;
39242;SDS011;29823;47.404;8.566;2024-02-04T04:47:41;18.13;;;10.68;;
39242;SDS011;29823;47.404;8.566;2024-02-04T04:50:09;21.67;;;12.27;;
39242;SDS011;29823;47.404;8.566;2024-02-04T04:52:36;25.05;;;11.85;;
39242;SDS011;29823;47.404;8.566;2024-02-04T04:55:04;20.42;;;11.27;;
39242;SDS011;29823;47.404;8.566;2024-02-04T04:57:32;20.45;;;10.63;;
39242;SDS011;29823;47.404;8.566;2024-02-04T05:00:01;21.05;;;12.48;;
39242;SDS011;29823;47.404;8.566;2024-02-04T05:02:33;24.30;;;11.45;;
39242;SDS011;29823;47.404;8.566;2024-02-04T05:05:00;19.48;;;11.15;;
39242;SDS011;29823;47.404;8.566;2024-02-04T05:07:28;19.08;;;10.75;;
39242;SDS011;29823;47.404;8.566;2024-02-04T05:09:56;17.42;;;10.07;;
39242;SDS011;29823;47.404;8.566;2024-02-04T05:12:24;22.40;;;10.75;;
39242;SDS011;29823;47.404;8.566;2024-02-04T05:14:52;23.23;;;11.35;;
39242;SDS011;29823;47.404;8.566;2024-02-04T05:17:21;22.13;;;11.55;;
39242;SDS011;29823;47.404;8.566;2024-02-04T05:19:48;21.70;;;12.52;;
39242;SDS011;29823;47.404;8.566;2024-02-04T05:22:16;20.75;;;11.98;;
39242;SDS011;29823;47.404;8.566;2024-02-04T05:24:44;28.02;;;14.13;;
39242;SDS011;29823;47.404;8.566;2024-02-04T05:27:11;27.80;;;13.38;;
39242;SDS011;29823;47.404;8.566;2024-02-04T05:29:39;23.77;;;12.77;;
39242;SDS011;29823;47.404;8.566;2024-02-04T05:32:07;22.25;;;12.77;;
39242;SDS011;29823;47.404;8.566;2024-02-04T05:34:36;27.58;;;13.27;;
39242;SDS011;29823;47.404;8.566;2024-02-04T05:37:04;24.35;;;13.65;;
39242;SDS011;29823;47.404;8.566;2024-02-04T05:39:32;25.92;;;12.85;;
39242;SDS011;29823;47.404;8.566;2024-02-04T05:42:00;24.23;;;13.48;;
39242;SDS011;29823;47.404;8.566;2024-02-04T05:44:28;24.48;;;12.32;;
39242;SDS011;29823;47.404;8.566;2024-02-04T05:46:55;21.63;;;12.05;;
39242;SDS011;29823;47.404;8.566;2024-02-04T05:49:23;24.42;;;13.00;;
39242;SDS011;29823;47.404;8.566;2024-02-04T05:51:52;23.55;;;12.25;;
39242;SDS011;29823;47.404;8.566;2024-02-04T05:54:20;22.60;;;11.43;;
39242;SDS011;29823;47.404;8.566;2024-02-04T05:56:48;19.38;;;9.77;;
39242;SDS011;29823;47.404;8.566;2024-02-04T05:59:15;17.90;;;10.20;;
39242;SDS011;29823;47.404;8.566;2024-02-04T06:01:43;18.73;;;10.57;;
39242;SDS011;29823;47.404;8.566;2024-02-04T06:04:11;20.65;;;10.70;;
39242;SDS011;29823;47.404;8.566;2024-02-04T06:06:39;21.65;;;10.80;;
39242;SDS011;29823;47.404;8.566;2024-02-04T06:09:08;18.73;;;10.18;;
39242;SDS011;29823;47.404;8.566;2024-02-04T06:11:36;15.48;;;8.73;;
39242;SDS011;29823;47.404;8.566;2024-02-04T06:14:04;15.43;;;8.80;;
39242;SDS011;29823;47.404;8.566;2024-02-04T06:16:32;14.50;;;7.97;;
39242;SDS011;29823;47.404;8.566;2024-02-04T06:19:01;18.08;;;7.32;;
39242;SDS011;29823;47.404;8.566;2024-02-04T06:21:29;14.48;;;7.88;;
39242;SDS011;29823;47.404;8.566;2024-02-04T06:23:57;13.93;;;7.18;;
39242;SDS011;29823;47.404;8.566;2024-02-04T06:26:26;14.32;;;7.32;;
39242;SDS011;29823;47.404;8.566;2024-02-04T06:28:54;15.95;;;7.05;;
39242;SDS011;29823;47.404;8.566;2024-02-04T06:31:21;13.43;;;7.40;;
39242;SDS011;29823;47.404;8.566;2024-02-04T06:33:49;14.52;;;7.55;;
39242;SDS011;29823;47.404;8.566;2024-02-04T06:36:18;15.00;;;7.70;;
39242;SDS011;29823;47.404;8.566;2024-02-04T06:38:45;25.75;;;11.55;;
39242;SDS011;29823;47.404;8.566;2024-02-04T06:41:13;22.45;;;8.60;;
39242;SDS011;29823;47.404;8.566;2024-02-04T06:43:42;13.15;;;6.72;;
39242;SDS011;29823;47.404;8.566;2024-02-04T06:46:10;12.30;;;6.50;;
39242;SDS011;29823;47.404;8.566;2024-02-04T06:48:38;13.85;;;6.20;;
39242;SDS011;29823;47.404;8.566;2024-02-04T06:51:06;12.70;;;6.35;;
39242;SDS011;29823;47.404;8.566;2024-02-04T06:53:33;12.88;;;6.10;;
39242;SDS011;29823;47.404;8.566;2024-02-04T06:56:01;12.82;;;5.57;;
39242;SDS011;29823;47.404;8.566;2024-02-04T06:58:29;12.98;;;6.30;;
39242;SDS011;29823;47.404;8.566;2024-02-04T07:00:58;11.10;;;5.78;;
39242;SDS011;29823;47.404;8.566;2024-02-04T07:03:26;12.45;;;6.05;;
39242;SDS011;29823;47.404;8.566;2024-02-04T07:05:53;25.30;;;11.18;;
39242;SDS011;29823;47.404;8.566;2024-02-04T07:08:21;16.40;;;6.88;;
39242;SDS011;29823;47.404;8.566;2024-02-04T07:10:49;11.70;;;5.95;;
39242;SDS011;29823;47.404;8.566;2024-02-04T07:13:17;11.15;;;5.97;;
39242;SDS011;29823;47.404;8.566;2024-02-04T07:15:45;11.00;;;6.43;;
39242;SDS011;29823;47.404;8.566;2024-02-04T07:18:14;13.63;;;6.55;;
39242;SDS011;29823;47.404;8.566;2024-02-04T07:20:43;15.57;;;6.97;;
39242;SDS011;29823;47.404;8.566;2024-02-04T07:23:11;12.10;;;7.03;;
39242;SDS011;29823;47.404;8.566;2024-02-04T07:25:38;14.57;;;6.70;;
39242;SDS011;29823;47.404;8.566;2024-02-04T07:28:06;10.88;;;5.43;;
39242;SDS011;29823;47.404;8.566;2024-02-04T07:30:34;8.13;;;5.03;;
39242;SDS011;29823;47.404;8.566;2024-02-04T07:33:02;11.38;;;6.15;;
39242;SDS011;29823;47.404;8.566;2024-02-04T07:35:31;12.38;;;6.00;;
39242;SDS011;29823;47.404;8.566;2024-02-04T07:37:58;13.60;;;6.32;;
39242;SDS011;29823;47.404;8.566;2024-02-04T07:40:26;13.93;;;6.60;;
39242;SDS011;29823;47.404;8.566;2024-02-04T07:42:54;11.50;;;6.18;;
39242;SDS011;29823;47.404;8.566;2024-02-04T07:45:22;13.07;;;6.10;;
39242;SDS011;29823;47.404;8.566;2024-02-04T07:47:49;14.65;;;6.72;;
39242;SDS011;29823;47.404;8.566;2024-02-04T07:50:17;10.93;;;6.05;;
39242;SDS011;29823;47.404;8.566;2024-02-04T07:52:46;32.53;;;16.10;;
39242;SDS011;29823;47.404;8.566;2024-02-04T07:55:14;14.88;;;7.07;;
39242;SDS011;29823;47.404;8.566;2024-02-04T07:57:41;13.02;;;6.30;;
39242;SDS011;29823;47.404;8.566;2024-02-04T08:00:09;16.20;;;7.75;;
39242;SDS011;29823;47.404;8.566;2024-02-04T08:02:37;18.65;;;9.35;;
39242;SDS011;29823;47.404;8.566;2024-02-04T08:05:05;21.75;;;10.32;;
39242;SDS011;29823;47.404;8.566;2024-02-04T08:07:34;17.88;;;10.02;;
39242;SDS011;29823;47.404;8.566;2024-02-04T08:10:03;19.00;;;9.40;;
39242;SDS011;29823;47.404;8.566;2024-02-04T08:12:31;16.15;;;9.05;;
39242;SDS011;29823;47.404;8.566;2024-02-04T08:15:00;15.90;;;9.82;;
39242;SDS011;29823;47.404;8.566;2024-02-04T08:17:27;16.20;;;8.73;;
39242;SDS011;29823;47.404;8.566;2024-02-04T08:19:57;18.23;;;9.68;;
39242;SDS011;29823;47.404;8.566;2024-02-04T08:22:25;15.50;;;8.98;;
39242;SDS011;29823;47.404;8.566;2024-02-04T08:24:53;17.23;;;10.13;;
39242;SDS011;29823;47.404;8.566;2024-02-04T08:27:22;18.77;;;9.77;;
39242;SDS011;29823;47.404;8.566;2024-02-04T08:29:50;11.02;;;7.03;;
39242;SDS011;29823;47.404;8.566;2024-02-04T08:32:17;16.02;;;8.07;;
39242;SDS011;29823;47.404;8.566;2024-02-04T08:34:45;19.60;;;10.63;;
39242;SDS011;29823;47.404;8.566;2024-02-04T08:37:13;25.88;;;10.43;;
39242;SDS011;29823;47.404;8.566;2024-02-04T08:39:41;15.82;;;8.48;;
39242;SDS011;29823;47.404;8.566;2024-02-04T08:42:09;14.75;;;7.97;;
39242;SDS011;29823;47.404;8.566;2024-02-04T08:44:38;13.27;;;7.47;;
39242;SDS011;29823;47.404;8.566;2024-02-04T08:47:05;15.10;;;7.45;;
39242;SDS011;29823;47.404;8.566;2024-02-04T08:49:36;27.08;;;13.82;;
39242;SDS011;29823;47.404;8.566;2024-02-04T08:52:04;16.90;;;9.35;;
39242;SDS011;29823;47.404;8.566;2024-02-04T08:54:32;16.05;;;8.68;;
39242;SDS011;29823;47.404;8.566;2024-02-04T08:57:00;15.27;;;8.32;;
39242;SDS011;29823;47.404;8.566;2024-02-04T08:59:28;13.40;;;8.20;;
39242;SDS011;29823;47.404;8.566;2024-02-04T09:01:57;13.30;;;7.80;;
39242;SDS011;29823;47.404;8.566;2024-02-04T09:04:25;23.25;;;11.60;;
39242;SDS011;29823;47.404;8.566;2024-02-04T09:06:52;14.52;;;6.40;;
39242;SDS011;29823;47.404;8.566;2024-02-04T09:09:20;9.40;;;5.57;;
39242;SDS011;29823;47.404;8.566;2024-02-04T09:11:48;11.60;;;5.47;;
39242;SDS011;29823;47.404;8.566;2024-02-04T09:14:16;9.80;;;5.15;;
39242;SDS011;29823;47.404;8.566;2024-02-04T09:16:43;7.53;;;4.32;;
39242;SDS011;29823;47.404;8.566;2024-02-04T09:19:13;6.97;;;4.75;;
39242;SDS011;29823;47.404;8.566;2024-02-04T09:21:41;7.13;;;4.55;;
39242;SDS011;29823;47.404;8.566;2024-02-04T09:24:09;7.28;;;4.22;;
39242;SDS011;29823;47.404;8.566;2024-02-04T09:26:37;7.35;;;4.47;;
39242;SDS011;29823;47.404;8.566;2024-02-04T09:29:05;7.35;;;4.32;;
39242;SDS011;29823;47.404;8.566;2024-02-04T09:31:33;5.97;;;3.88;;
39242;SDS011;29823;47.404;8.566;2024-02-04T09:34:01;5.75;;;3.90;;
39242;SDS011;29823;47.404;8.566;2024-02-04T09:36:30;5.75;;;3.33;;
39242;SDS011;29823;47.404;8.566;2024-02-04T09:38:58;7.20;;;3.90;;
39242;SDS011;29823;47.404;8.566;2024-02-04T09:41:26;7.40;;;4.30;;
39242;SDS011;29823;47.404;8.566;2024-02-04T09:43:54;5.13;;;3.28;;
39242;SDS011;29823;47.404;8.566;2024-02-04T09:46:22;8.75;;;4.30;;
39242;SDS011;29823;47.404;8.566;2024-02-04T09:48:51;11.85;;;3.47;;
39242;SDS011;29823;47.404;8.566;2024-02-04T09:51:18;7.38;;;4.30;;
39242;SDS011;29823;47.404;8.566;2024-02-04T09:53:49;5.75;;;3.55;;
39242;SDS011;29823;47.404;8.566;2024-02-04T09:56:18;7.40;;;4.20;;
39242;SDS011;29823;47.404;8.566;2024-02-04T09:58:49;5.75;;;3.72;;
39242;SDS011;29823;47.404;8.566;2024-02-04T10:01:19;8.05;;;3.90;;
39242;SDS011;29823;47.404;8.566;2024-02-04T10:03:49;4.43;;;3.40;;
39242;SDS011;29823;47.404;8.566;2024-02-04T10:06:17;6.10;;;3.58;;
39242;SDS011;29823;47.404;8.566;2024-02-04T10:08:45;5.82;;;3.42;;
39242;SDS011;29823;47.404;8.566;2024-02-04T10:11:16;7.85;;;4.03;;
39242;SDS011;29823;47.404;8.566;2024-02-04T10:13:44;6.82;;;3.75;;
39242;SDS011;29823;47.404;8.566;2024-02-04T10:16:12;5.78;;;3.58;;
39242;SDS011;29823;47.404;8.566;2024-02-04T10:18:41;6.50;;;3.78;;
39242;SDS011;29823;47.404;8.566;2024-02-04T10:21:14;6.97;;;3.42;;
39242;SDS011;29823;47.404;8.566;2024-02-04T10:23:42;7.20;;;4.20;;
39242;SDS011;29823;47.404;8.566;2024-02-04T10:26:09;9.50;;;3.70;;
39242;SDS011;29823;47.404;8.566;2024-02-04T10:28:38;5.53;;;3.28;;
39242;SDS011;29823;47.404;8.566;2024-02-04T10:31:08;4.63;;;3.17;;
39242;SDS011;29823;47.404;8.566;2024-02-04T10:33:37;6.40;;;3.65;;
39242;SDS011;29823;47.404;8.566;2024-02-04T10:36:05;6.30;;;3.50;;
39242;SDS011;29823;47.404;8.566;2024-02-04T10:38:33;7.70;;;3.63;;
39242;SDS011;29823;47.404;8.566;2024-02-04T10:41:01;5.18;;;3.60;;
39242;SDS011;29823;47.404;8.566;2024-02-04T10:43:30;5.75;;;3.55;;
39242;SDS011;29823;47.404;8.566;2024-02-04T10:46:01;5.22;;;3.30;;
39242;SDS011;29823;47.404;8.566;2024-02-04T10:48:29;5.53;;;3.20;;
39242;SDS011;29823;47.404;8.566;2024-02-04T10:50:57;6.03;;;3.40;;
39242;SDS011;29823;47.404;8.566;2024-02-04T10:53:26;3.90;;;2.45;;
39242;SDS011;29823;47.404;8.566;2024-02-04T10:55:54;7.90;;;2.97;;
39242;SDS011;29823;47.404;8.566;2024-02-04T10:58:27;5.72;;;2.35;;
39242;SDS011;29823;47.404;8.566;2024-02-04T11:00:56;4.40;;;2.83;;
39242;SDS011;29823;47.404;8.566;2024-02-04T11:03:25;6.53;;;2.67;;
39242;SDS011;29823;47.404;8.566;2024-02-04T11:05:54;6.30;;;3.60;;
39242;SDS011;29823;47.404;8.566;2024-02-04T11:08:22;5.43;;;3.33;;
39242;SDS011;29823;47.404;8.566;2024-02-04T11:10:50;4.88;;;2.90;;
39242;SDS011;29823;47.404;8.566;2024-02-04T11:13:19;4.75;;;2.67;;
39242;SDS011;29823;47.404;8.566;2024-02-04T11:15:48;4.25;;;2.80;;
39242;SDS011;29823;47.404;8.566;2024-02-04T11:18:24;4.70;;;2.88;;
39242;SDS011;29823;47.404;8.566;2024-02-04T11:21:07;6.53;;;3.35;;
39242;SDS011;29823;47.404;8.566;2024-02-04T11:23:39;7.68;;;3.20;;
39242;SDS011;29823;47.404;8.566;2024-02-04T11:26:09;7.72;;;3.25;;
39242;SDS011;29823;47.404;8.566;2024-02-04T11:28:37;6.15;;;3.10;;
39242;SDS011;29823;47.404;8.566;2024-02-04T11:31:12;7.00;;;3.40;;
39242;SDS011;29823;47.404;8.566;2024-02-04T11:33:40;29.13;;;14.82;;
39242;SDS011;29823;47.404;8.566;2024-02-04T11:36:13;6.13;;;3.92;;
39242;SDS011;29823;47.404;8.566;2024-02-04T11:38:41;7.22;;;3.78;;
39242;SDS011;29823;47.404;8.566;2024-02-04T11:41:09;6.32;;;3.25;;
39242;SDS011;29823;47.404;8.566;2024-02-04T11:43:37;11.00;;;3.78;;
39242;SDS011;29823;47.404;8.566;2024-02-04T11:46:06;6.68;;;3.83;;
39242;SDS011;29823;47.404;8.566;2024-02-04T11:48:34;11.40;;;3.80;;
39242;SDS011;29823;47.404;8.566;2024-02-04T11:51:03;7.25;;;3.70;;
39242;SDS011;29823;47.404;8.566;2024-02-04T11:53:34;7.53;;;4.10;;
39242;SDS011;29823;47.404;8.566;2024-02-04T11:56:02;9.02;;;3.92;;
39242;SDS011;29823;47.404;8.566;2024-02-04T11:58:30;7.25;;;4.53;;
39242;SDS011;29823;47.404;8.566;2024-02-04T12:00:59;7.88;;;4.30;;
39242;SDS011;29823;47.404;8.566;2024-02-04T12:03:29;9.23;;;3.95;;
39242;SDS011;29823;47.404;8.566;2024-02-04T12:05:57;9.32;;;4.25;;
39242;SDS011;29823;47.404;8.566;2024-02-04T12:08:26;11.23;;;4.38;;
39242;SDS011;29823;47.404;8.566;2024-02-04T12:10:55;10.57;;;4.45;;
39242;SDS011;29823;47.404;8.566;2024-02-04T12:13:24;10.75;;;5.13;;
39242;SDS011;29823;47.404;8.566;2024-02-04T12:15:51;11.05;;;4.88;;
39242;SDS011;29823;47.404;8.566;2024-02-04T12:18:19;8.68;;;5.35;;
39242;SDS011;29823;47.404;8.566;2024-02-04T12:20:47;8.27;;;4.53;;
39242;SDS011;29823;47.404;8.566;2024-02-04T12:23:17;11.55;;;6.15;;
39242;SDS011;29823;47.404;8.566;2024-02-04T12:25:45;9.57;;;4.70;;
39242;SDS011;29823;47.404;8.566;2024-02-04T12:28:15;6.97;;;4.63;;
39242;SDS011;29823;47.404;8.566;2024-02-04T12:30:52;8.40;;;4.97;;
39242;SDS011;29823;47.404;8.566;2024-02-04T12:33:20;8.05;;;4.70;;
39242;SDS011;29823;47.404;8.566;2024-02-04T12:35:51;11.50;;;5.07;;
39242;SDS011;29823;47.404;8.566;2024-02-04T12:38:18;8.90;;;5.00;;
39242;SDS011;29823;47.404;8.566;2024-02-04T12:40:46;9.60;;;4.95;;
39242;SDS011;29823;47.404;8.566;2024-02-04T12:43:15;11.10;;;5.00;;
39242;SDS011;29823;47.404;8.566;2024-02-04T12:45:43;10.10;;;5.00;;
39242;SDS011;29823;47.404;8.566;2024-02-04T12:48:13;8.45;;;4.43;;
39242;SDS011;29823;47.404;8.566;2024-02-04T12:50:41;8.75;;;4.75;;
39242;SDS011;29823;47.404;8.566;2024-02-04T12:53:09;9.43;;;4.53;;
39242;SDS011;29823;47.404;8.566;2024-02-04T12:55:38;9.30;;;4.55;;
39242;SDS011;29823;47.404;8.566;2024-02-04T12:58:06;11.15;;;5.15;;
39242;SDS011;29823;47.404;8.566;2024-02-04T13:00:36;8.48;;;4.63;;
39242;SDS011;29823;47.404;8.566;2024-02-04T13:03:05;10.63;;;5.22;;
39242;SDS011;29823;47.404;8.566;2024-02-04T13:05:34;9.43;;;5.93;;
39242;SDS011;29823;47.404;8.566;2024-02-04T13:08:02;8.55;;;4.93;;
39242;SDS011;29823;47.404;8.566;2024-02-04T13:10:32;10.63;;;5.53;;
39242;SDS011;29823;47.404;8.566;2024-02-04T13:13:01;10.30;;;4.57;;
39242;SDS011;29823;47.404;8.566;2024-02-04T13:15:30;11.38;;;4.63;;
39242;SDS011;29823;47.404;8.566;2024-02-04T13:17:59;8.02;;;4.80;;
39242;SDS011;29823;47.404;8.566;2024-02-04T13:20:27;8.80;;;5.03;;
39242;SDS011;29823;47.404;8.566;2024-02-04T13:22:57;11.65;;;5.82;;
39242;SDS011;29823;47.404;8.566;2024-02-04T13:25:27;10.98;;;5.55;;
39242;SDS011;29823;47.404;8.566;2024-02-04T13:27:55;12.88;;;5.88;;
39242;SDS011;29823;47.404;8.566;2024-02-04T13:30:22;11.23;;;6.70;;
39242;SDS011;29823;47.404;8.566;2024-02-04T13:32:50;13.68;;;6.78;;
39242;SDS011;29823;47.404;8.566;2024-02-04T13:35:19;15.15;;;6.55;;
39242;SDS011;29823;47.404;8.566;2024-02-04T13:37:48;20.10;;;11.15;;
39242;SDS011;29823;47.404;8.566;2024-02-04T13:40:18;11.02;;;6.22;;
39242;SDS011;29823;47.404;8.566;2024-02-04T13:42:46;14.13;;;6.30;;
39242;SDS011;29823;47.404;8.566;2024-02-04T13:45:14;16.98;;;5.70;;
39242;SDS011;29823;47.404;8.566;2024-02-04T13:47:42;13.75;;;5.82;;
39242;SDS011;29823;47.404;8.566;2024-02-04T13:50:10;14.40;;;5.22;;
39242;SDS011;29823;47.404;8.566;2024-02-04T13:52:40;11.85;;;5.25;;
39242;SDS011;29823;47.404;8.566;2024-02-04T13:55:08;11.55;;;6.05;;
39242;SDS011;29823;47.404;8.566;2024-02-04T13:57:36;13.65;;;5.47;;
39242;SDS011;29823;47.404;8.566;2024-02-04T14:00:04;13.05;;;6.18;;
39242;SDS011;29823;47.404;8.566;2024-02-04T14:02:34;15.63;;;6.35;;
39242;SDS011;29823;47.404;8.566;2024-02-04T14:05:02;10.63;;;5.40;;
39242;SDS011;29823;47.404;8.566;2024-02-04T14:07:30;10.50;;;4.93;;
39242;SDS011;29823;47.404;8.566;2024-02-04T14:09:59;10.15;;;5.35;;
39242;SDS011;29823;47.404;8.566;2024-02-04T14:12:27;13.38;;;5.93;;
39242;SDS011;29823;47.404;8.566;2024-02-04T14:14:55;12.65;;;5.90;;
39242;SDS011;29823;47.404;8.566;2024-02-04T14:17:23;13.63;;;5.72;;
39242;SDS011;29823;47.404;8.566;2024-02-04T14:19:51;15.05;;;5.50;;
39242;SDS011;29823;47.404;8.566;2024-02-04T14:22:19;9.02;;;5.20;;
39242;SDS011;29823;47.404;8.566;2024-02-04T14:24:48;14.77;;;5.50;;
39242;SDS011;29823;47.404;8.566;2024-02-04T14:27:17;14.30;;;5.57;;
39242;SDS011;29823;47.404;8.566;2024-02-04T14:29:45;11.02;;;5.63;;
39242;SDS011;29823;47.404;8.566;2024-02-04T14:32:13;9.70;;;5.65;;
39242;SDS011;29823;47.404;8.566;2024-02-04T14:34:40;11.95;;;5.13;;
39242;SDS011;29823;47.404;8.566;2024-02-04T14:37:08;12.00;;;5.55;;
39242;SDS011;29823;47.404;8.566;2024-02-04T14:39:40;12.98;;;5.85;;
39242;SDS011;29823;47.404;8.566;2024-02-04T14:42:08;12.77;;;5.43;;
39242;SDS011;29823;47.404;8.566;2024-02-04T14:44:37;10.30;;;5.60;;